sensor_id;sensor_type;location;lat;lon;timestamp;temperature;humidity
20315;DHT22;10315;50.958;13.080;2022-08-19T00:08:09;18.10;99.90
20315;DHT22;10315;50.958;13.080;2022-08-19T00:18:12;18.20;99.90
20315;DHT22;10315;50.958;13.080;2022-08-19T00:28:14;18.20;99.90
20315;DHT22;10315;50.958;13.080;2022-08-19T00:38:17;18.30;99.90
20315;DHT22;10315;50.958;13.080;2022-08-19T00:48:22;18.30;99.90
20315;DHT22;10315;50.958;13.080;2022-08-19T00:58:29;18.30;99.90
20315;DHT22;10315;50.958;13.080;2022-08-19T01:08:31;18.40;99.90
20315;DHT22;10315;50.958;13.080;2022-08-19T01:18:38;18.40;99.90
20315;DHT22;10315;50.958;13.080;2022-08-19T01:28:43;18.40;99.90
20315;DHT22;10315;50.958;13.080;2022-08-19T01:38:45;18.40;99.90
20315;DHT22;10315;50.958;13.080;2022-08-19T01:48:48;18.50;99.90
20315;DHT22;10315;50.958;13.080;2022-08-19T01:58:53;18.40;99.90
20315;DHT22;10315;50.958;13.080;2022-08-19T02:08:56;18.40;99.90
20315;DHT22;10315;50.958;13.080;2022-08-19T02:18:58;18.50;99.90
20315;DHT22;10315;50.958;13.080;2022-08-19T02:29:02;18.40;99.90
20315;DHT22;10315;50.958;13.080;2022-08-19T02:39:04;18.40;99.90
20315;DHT22;10315;50.958;13.080;2022-08-19T02:49:07;18.40;99.90
20315;DHT22;10315;50.958;13.080;2022-08-19T02:59:09;18.40;99.90
20315;DHT22;10315;50.958;13.080;2022-08-19T03:09:14;18.40;99.90
20315;DHT22;10315;50.958;13.080;2022-08-19T03:19:17;18.40;99.90
20315;DHT22;10315;50.958;13.080;2022-08-19T03:29:20;18.40;99.90
20315;DHT22;10315;50.958;13.080;2022-08-19T03:39:22;18.40;99.90
20315;DHT22;10315;50.958;13.080;2022-08-19T03:49:27;18.40;99.90
20315;DHT22;10315;50.958;13.080;2022-08-19T03:59:34;18.40;99.90
20315;DHT22;10315;50.958;13.080;2022-08-19T04:09:37;18.50;99.90
20315;DHT22;10315;50.958;13.080;2022-08-19T04:19:39;18.40;99.90
20315;DHT22;10315;50.958;13.080;2022-08-19T04:29:44;18.40;99.90
20315;DHT22;10315;50.958;13.080;2022-08-19T04:39:46;18.40;99.90
20315;DHT22;10315;50.958;13.080;2022-08-19T04:50:07;18.50;99.90
20315;DHT22;10315;50.958;13.080;2022-08-19T05:00:12;18.70;99.90
20315;DHT22;10315;50.958;13.080;2022-08-19T05:10:15;18.80;99.90
20315;DHT22;10315;50.958;13.080;2022-08-19T05:20:17;19.00;99.90
20315;DHT22;10315;50.958;13.080;2022-08-19T05:30:37;19.00;99.90
20315;DHT22;10315;50.958;13.080;2022-08-19T05:40:41;18.80;99.90
20315;DHT22;10315;50.958;13.080;2022-08-19T05:50:47;18.80;99.90
20315;DHT22;10315;50.958;13.080;2022-08-19T06:00:50;18.80;99.90
20315;DHT22;10315;50.958;13.080;2022-08-19T06:10:55;18.70;99.90
20315;DHT22;10315;50.958;13.080;2022-08-19T06:20:56;18.80;99.90
20315;DHT22;10315;50.958;13.080;2022-08-19T06:31:05;19.00;99.90
20315;DHT22;10315;50.958;13.080;2022-08-19T06:41:07;19.10;99.90
20315;DHT22;10315;50.958;13.080;2022-08-19T06:51:11;19.10;99.90
20315;DHT22;10315;50.958;13.080;2022-08-19T07:01:15;19.00;99.90
20315;DHT22;10315;50.958;13.080;2022-08-19T07:11:18;18.80;99.90
20315;DHT22;10315;50.958;13.080;2022-08-19T07:21:23;18.90;99.90
20315;DHT22;10315;50.958;13.080;2022-08-19T07:31:28;18.80;99.90
20315;DHT22;10315;50.958;13.080;2022-08-19T07:41:30;18.90;99.90
20315;DHT22;10315;50.958;13.080;2022-08-19T07:51:34;19.30;99.90
20315;DHT22;10315;50.958;13.080;2022-08-19T08:01:36;19.90;99.90
20315;DHT22;10315;50.958;13.080;2022-08-19T08:11:44;20.10;99.90
20315;DHT22;10315;50.958;13.080;2022-08-19T08:21:49;19.80;99.90
20315;DHT22;10315;50.958;13.080;2022-08-19T08:31:52;19.80;99.90
20315;DHT22;10315;50.958;13.080;2022-08-19T08:41:59;20.10;99.90
20315;DHT22;10315;50.958;13.080;2022-08-19T08:52:06;20.50;99.90
20315;DHT22;10315;50.958;13.080;2022-08-19T09:02:08;20.20;99.90
20315;DHT22;10315;50.958;13.080;2022-08-19T09:12:25;20.00;99.90
20315;DHT22;10315;50.958;13.080;2022-08-19T09:22:32;20.20;99.90
20315;DHT22;10315;50.958;13.080;2022-08-19T09:32:35;22.20;99.90
20315;DHT22;10315;50.958;13.080;2022-08-19T09:42:37;21.90;99.90
20315;DHT22;10315;50.958;13.080;2022-08-19T09:52:40;21.70;99.90
20315;DHT22;10315;50.958;13.080;2022-08-19T10:02:42;20.70;99.90
20315;DHT22;10315;50.958;13.080;2022-08-19T10:12:45;20.90;99.90
20315;DHT22;10315;50.958;13.080;2022-08-19T10:22:47;21.50;99.90
20315;DHT22;10315;50.958;13.080;2022-08-19T10:32:50;21.90;99.90
20315;DHT22;10315;50.958;13.080;2022-08-19T10:42:52;21.60;99.90
20315;DHT22;10315;50.958;13.080;2022-08-19T10:52:55;20.80;99.90
20315;DHT22;10315;50.958;13.080;2022-08-19T11:02:57;21.10;99.90
20315;DHT22;10315;50.958;13.080;2022-08-19T11:13:00;20.80;99.90
20315;DHT22;10315;50.958;13.080;2022-08-19T11:23:02;20.60;99.90
20315;DHT22;10315;50.958;13.080;2022-08-19T11:33:05;20.50;99.90
20315;DHT22;10315;50.958;13.080;2022-08-19T11:43:07;20.10;99.90
20315;DHT22;10315;50.958;13.080;2022-08-19T11:53:11;19.80;99.90
20315;DHT22;10315;50.958;13.080;2022-08-19T12:03:13;19.50;99.90
20315;DHT22;10315;50.958;13.080;2022-08-19T12:13:16;19.50;99.90
20315;DHT22;10315;50.958;13.080;2022-08-19T12:23:18;19.40;99.90
20315;DHT22;10315;50.958;13.080;2022-08-19T12:33:22;19.50;99.90
20315;DHT22;10315;50.958;13.080;2022-08-19T12:43:25;20.00;99.90
20315;DHT22;10315;50.958;13.080;2022-08-19T12:53:29;19.90;99.90
20315;DHT22;10315;50.958;13.080;2022-08-19T13:03:30;19.50;99.90
20315;DHT22;10315;50.958;13.080;2022-08-19T13:13:33;19.60;99.90
20315;DHT22;10315;50.958;13.080;2022-08-19T13:23:35;19.70;99.90
20315;DHT22;10315;50.958;13.080;2022-08-19T13:33:38;20.00;99.90
20315;DHT22;10315;50.958;13.080;2022-08-19T13:43:40;20.20;99.90
20315;DHT22;10315;50.958;13.080;2022-08-19T13:53:43;20.00;99.90
20315;DHT22;10315;50.958;13.080;2022-08-19T14:03:45;19.90;99.90
20315;DHT22;10315;50.958;13.080;2022-08-19T14:13:48;19.70;99.90
20315;DHT22;10315;50.958;13.080;2022-08-19T14:23:50;19.80;99.90
20315;DHT22;10315;50.958;13.080;2022-08-19T14:33:54;20.00;99.90
20315;DHT22;10315;50.958;13.080;2022-08-19T14:43:57;20.00;99.90
20315;DHT22;10315;50.958;13.080;2022-08-19T14:54:00;20.10;99.90
20315;DHT22;10315;50.958;13.080;2022-08-19T15:04:02;20.40;99.90
20315;DHT22;10315;50.958;13.080;2022-08-19T15:14:19;20.70;99.90
20315;DHT22;10315;50.958;13.080;2022-08-19T15:24:21;20.80;99.90
20315;DHT22;10315;50.958;13.080;2022-08-19T15:34:25;21.00;99.90
20315;DHT22;10315;50.958;13.080;2022-08-19T15:44:26;21.10;99.90
20315;DHT22;10315;50.958;13.080;2022-08-19T15:54:30;20.50;99.90
20315;DHT22;10315;50.958;13.080;2022-08-19T16:04:31;20.10;99.90
20315;DHT22;10315;50.958;13.080;2022-08-19T16:14:52;19.80;99.90
20315;DHT22;10315;50.958;13.080;2022-08-19T16:25:03;20.00;99.90
20315;DHT22;10315;50.958;13.080;2022-08-19T16:35:06;20.00;99.90
20315;DHT22;10315;50.958;13.080;2022-08-19T16:45:09;19.80;99.90
20315;DHT22;10315;50.958;13.080;2022-08-19T16:55:12;19.80;99.90
20315;DHT22;10315;50.958;13.080;2022-08-19T17:05:14;19.80;99.90
20315;DHT22;10315;50.958;13.080;2022-08-19T17:15:17;19.60;99.90
20315;DHT22;10315;50.958;13.080;2022-08-19T17:25:19;19.40;99.90
20315;DHT22;10315;50.958;13.080;2022-08-19T17:35:22;19.30;99.90
20315;DHT22;10315;50.958;13.080;2022-08-19T17:45:23;19.10;99.90
20315;DHT22;10315;50.958;13.080;2022-08-19T17:55:29;18.90;99.90
20315;DHT22;10315;50.958;13.080;2022-08-19T18:05:34;18.90;99.90
20315;DHT22;10315;50.958;13.080;2022-08-19T18:15:38;18.70;99.90
20315;DHT22;10315;50.958;13.080;2022-08-19T18:25:40;18.70;99.90
20315;DHT22;10315;50.958;13.080;2022-08-19T18:35:45;18.50;99.90
20315;DHT22;10315;50.958;13.080;2022-08-19T18:45:48;18.40;99.90
20315;DHT22;10315;50.958;13.080;2022-08-19T18:56:12;18.40;99.90
20315;DHT22;10315;50.958;13.080;2022-08-19T19:06:16;18.40;99.90
20315;DHT22;10315;50.958;13.080;2022-08-19T19:16:20;18.40;99.90
20315;DHT22;10315;50.958;13.080;2022-08-19T19:26:22;18.20;99.90
20315;DHT22;10315;50.958;13.080;2022-08-19T19:36:25;18.10;99.90
20315;DHT22;10315;50.958;13.080;2022-08-19T19:46:27;18.20;99.90
20315;DHT22;10315;50.958;13.080;2022-08-19T19:56:30;18.10;99.90
20315;DHT22;10315;50.958;13.080;2022-08-19T20:06:32;18.00;99.90
20315;DHT22;10315;50.958;13.080;2022-08-19T20:16:35;18.00;99.90
20315;DHT22;10315;50.958;13.080;2022-08-19T20:26:41;18.00;99.90
20315;DHT22;10315;50.958;13.080;2022-08-19T20:36:44;17.90;99.90
20315;DHT22;10315;50.958;13.080;2022-08-19T20:46:46;17.70;99.90
20315;DHT22;10315;50.958;13.080;2022-08-19T20:56:49;17.60;99.90
20315;DHT22;10315;50.958;13.080;2022-08-19T21:06:52;17.50;99.90
20315;DHT22;10315;50.958;13.080;2022-08-19T21:16:55;17.60;99.90
20315;DHT22;10315;50.958;13.080;2022-08-19T21:26:58;17.70;99.90
20315;DHT22;10315;50.958;13.080;2022-08-19T21:37:01;17.50;99.90
20315;DHT22;10315;50.958;13.080;2022-08-19T21:47:02;17.40;99.90
20315;DHT22;10315;50.958;13.080;2022-08-19T21:57:06;17.60;99.90
20315;DHT22;10315;50.958;13.080;2022-08-19T22:07:08;17.60;99.90
20315;DHT22;10315;50.958;13.080;2022-08-19T22:17:12;17.60;99.90
20315;DHT22;10315;50.958;13.080;2022-08-19T22:27:14;17.60;99.90
20315;DHT22;10315;50.958;13.080;2022-08-19T22:37:17;17.60;99.90
20315;DHT22;10315;50.958;13.080;2022-08-19T22:47:19;17.70;99.90
20315;DHT22;10315;50.958;13.080;2022-08-19T22:57:22;17.70;99.90
20315;DHT22;10315;50.958;13.080;2022-08-19T23:07:24;17.60;99.90
20315;DHT22;10315;50.958;13.080;2022-08-19T23:17:27;17.50;99.90
20315;DHT22;10315;50.958;13.080;2022-08-19T23:27:28;17.40;99.90
20315;DHT22;10315;50.958;13.080;2022-08-19T23:37:49;17.30;99.90
20315;DHT22;10315;50.958;13.080;2022-08-19T23:47:52;17.50;99.90
20315;DHT22;10315;50.958;13.080;2022-08-19T23:57:56;17.40;99.90
